首页
METAR-TAF:

METAR-TAF

机场 :

法鲁, 葡萄牙

纬度: 37-01N, 经度: 007-58W, 海拔: 7米

当前天气观测

该预报发布于48分钟前的13:30 UTC
风速6节,风向东转东南,在南转南东之间变化
温度 18°C
湿度 73%
气压 1025 hPa
能见度10公里或以上
少量云层高于800英尺
散云层高于1200英尺

METAR: LPFR 291330Z 12006KT 090V160 9999 FEW008 SCT012 18/13 Q1025

时间: 14:18 (14:18 UTC)

预报

该预报发布于3小时和18分钟前的11:00 UTC
预报有效从29日的 12点(UTC)到 30日的 12点(UTC)
风速5节,风向
能见度10公里或以上
散云层高于2000英尺
成为
从 29日的 15点(UTC)到 29日的 18点(UTC)
风速7节,风向西转西南
成为
从 30日的 00点(UTC)到 30日的 03点(UTC)
风速2节,风向多变
成为
从 30日的 10点(UTC)到 30日的 12点(UTC)
风速7节,风向西转西南

TAF: LPFR 291100Z 2912/3012 10005KT 9999 SCT020 BECMG 2915/2918 24007KT BECMG 3000/3003 VRB02KT BECMG 3010/3012 24007KT

超过4000个机场的气象观测和天气预报(METAR&TAF报告)。

可查询的气象台以黄色和红色小点在地图上表示。

将鼠标移到小点上方,可查看气象台名称。

然后点击查看天气观测和预报。

如需切换地图:点击带黑十字的绿色按钮放大地图;点击带横线的绿色按钮缩小地图;或者点击绿色箭头查看邻近地区的地图。


METAR-TAF: